createdAt,value
2022-10-21T00:01:43.484Z,22.25
2022-10-21T00:04:12.875Z,23.00
2022-10-21T00:06:42.350Z,22.75
2022-10-21T00:09:11.844Z,23.00
2022-10-21T00:11:41.337Z,23.00
2022-10-21T00:14:10.872Z,23.00
2022-10-21T00:16:40.340Z,27.00
2022-10-21T00:19:09.735Z,25.50
2022-10-21T00:21:39.337Z,24.00
2022-10-21T00:24:08.813Z,25.75
2022-10-21T00:26:38.626Z,24.50
2022-10-21T00:29:08.207Z,26.25
2022-10-21T00:31:37.850Z,25.00
2022-10-21T00:34:07.455Z,24.75
2022-10-21T00:36:36.871Z,24.00
2022-10-21T00:39:06.342Z,25.00
2022-10-21T00:41:35.857Z,24.50
2022-10-21T00:44:05.281Z,23.00
2022-10-21T00:46:43.129Z,22.75
2022-10-21T00:49:26.548Z,23.50
2022-10-21T00:51:57.980Z,21.75
2022-10-21T00:54:28.343Z,22.50
2022-10-21T00:56:58.550Z,21.00
2022-10-21T00:59:32.129Z,22.00
2022-10-21T01:02:01.686Z,22.50
2022-10-21T01:04:31.146Z,22.50
2022-10-21T01:07:02.048Z,20.75
2022-10-21T01:09:31.638Z,21.50
2022-10-21T01:12:03.534Z,22.00
2022-10-21T01:14:32.912Z,23.00
2022-10-21T01:17:02.353Z,22.50
2022-10-21T01:19:43.901Z,23.00
2022-10-21T01:22:25.617Z,21.75
2022-10-21T01:25:01.306Z,20.75
2022-10-21T01:27:37.566Z,19.75
2022-10-21T01:30:16.505Z,20.25
2022-10-21T01:32:52.337Z,19.75
2022-10-21T01:35:28.650Z,22.00
2022-10-21T01:37:58.469Z,21.75
2022-10-21T01:40:43.215Z,21.50
2022-10-21T01:43:23.704Z,21.75
2022-10-21T01:45:58.528Z,21.75
2022-10-21T01:48:35.256Z,22.75
2022-10-21T01:51:06.711Z,21.75
2022-10-21T01:53:42.297Z,19.75
2022-10-21T01:56:13.616Z,21.25
2022-10-21T01:58:45.039Z,20.25
2022-10-21T02:01:16.103Z,21.50
2022-10-21T02:03:49.022Z,19.50
2022-10-21T02:06:19.584Z,21.00
2022-10-21T02:08:49.096Z,20.00
2022-10-21T02:11:20.466Z,21.00
2022-10-21T02:13:53.726Z,19.00
2022-10-21T02:16:26.181Z,19.25
2022-10-21T02:18:56.721Z,20.00
2022-10-21T02:21:28.269Z,19.75
2022-10-21T02:24:06.695Z,19.50
2022-10-21T02:26:37.554Z,19.50
2022-10-21T02:29:07.701Z,17.50
2022-10-21T02:31:37.278Z,16.75
2022-10-21T02:34:16.297Z,19.75
2022-10-21T02:36:56.271Z,17.75
2022-10-21T02:39:30.187Z,18.50
2022-10-21T02:42:03.122Z,19.75
2022-10-21T02:44:34.016Z,18.50
2022-10-21T02:47:05.352Z,19.00
2022-10-21T02:49:35.041Z,18.00
2022-10-21T02:52:04.430Z,18.75
2022-10-21T02:54:33.924Z,18.25
2022-10-21T02:57:03.374Z,17.25
2022-10-21T02:59:32.885Z,16.25
2022-10-21T03:02:02.316Z,17.75
2022-10-21T03:04:31.764Z,14.75
2022-10-21T03:07:01.227Z,16.75
2022-10-21T03:09:30.689Z,15.50
2022-10-21T03:12:00.109Z,15.75
2022-10-21T03:14:29.524Z,15.00
2022-10-21T03:16:59.029Z,16.25
2022-10-21T03:19:28.448Z,14.50
2022-10-21T03:21:57.967Z,15.50
2022-10-21T03:24:28.729Z,17.50
2022-10-21T03:26:58.492Z,14.50
2022-10-21T03:29:28.165Z,16.00
2022-10-21T03:31:58.563Z,14.50
2022-10-21T03:34:27.995Z,15.25
2022-10-21T03:36:57.405Z,15.50
2022-10-21T03:39:26.933Z,13.75
2022-10-21T03:41:56.349Z,14.25
2022-10-21T03:44:25.797Z,12.00
2022-10-21T03:46:55.277Z,12.75
2022-10-21T03:49:25.041Z,12.50
2022-10-21T03:51:54.449Z,13.25
2022-10-21T03:54:23.957Z,12.50
2022-10-21T03:56:53.499Z,11.25
2022-10-21T03:59:22.880Z,12.25
2022-10-21T04:01:52.394Z,13.00
2022-10-21T04:04:21.957Z,10.00
2022-10-21T04:06:51.404Z,11.00
2022-10-21T04:09:20.918Z,11.25
2022-10-21T04:11:50.417Z,11.25
2022-10-21T04:14:21.352Z,12.00
2022-10-21T04:16:57.609Z,13.25
2022-10-21T04:19:32.253Z,21.25
2022-10-21T04:22:01.694Z,22.25
2022-10-21T04:24:32.133Z,26.50
2022-10-21T04:27:02.922Z,25.25
2022-10-21T04:29:32.580Z,25.50
2022-10-21T04:32:01.993Z,23.50
2022-10-21T04:34:31.401Z,25.00
2022-10-21T04:37:04.092Z,25.75
2022-10-21T04:39:34.982Z,27.50
2022-10-21T04:42:04.450Z,33.00
2022-10-21T04:44:33.948Z,30.50
2022-10-21T04:47:03.330Z,31.00
2022-10-21T04:49:32.817Z,31.00
2022-10-21T04:52:02.310Z,32.00
2022-10-21T04:54:31.958Z,30.50
2022-10-21T04:57:01.507Z,31.00
2022-10-21T04:59:31.966Z,31.75
2022-10-21T05:04:31.564Z,32.00
2022-10-21T05:07:00.965Z,33.75
2022-10-21T05:09:30.367Z,33.50
2022-10-21T05:11:59.877Z,33.50
2022-10-21T05:14:29.302Z,32.75
2022-10-21T05:16:59.377Z,32.75
2022-10-21T05:19:31.219Z,35.25
2022-10-21T05:22:01.595Z,36.50
2022-10-21T05:24:31.083Z,34.25
2022-10-21T05:27:00.487Z,34.50
2022-10-21T05:29:30.945Z,32.75
2022-10-21T05:32:00.612Z,31.50
2022-10-21T05:34:30.053Z,31.00
2022-10-21T05:36:59.615Z,33.00
2022-10-21T05:39:29.244Z,32.75
2022-10-21T05:41:58.773Z,30.75
2022-10-21T05:44:28.144Z,30.50
2022-10-21T05:46:58.611Z,31.25
2022-10-21T05:49:28.113Z,30.50
2022-10-21T05:51:57.627Z,31.25
2022-10-21T05:54:27.084Z,31.75
2022-10-21T05:57:00.091Z,29.25
2022-10-21T05:59:30.294Z,31.25
2022-10-21T06:01:59.785Z,30.50
2022-10-21T06:04:29.223Z,29.75
2022-10-21T06:06:59.437Z,31.50
2022-10-21T06:09:28.892Z,33.00
2022-10-21T06:11:59.401Z,30.50
2022-10-21T06:14:30.239Z,30.50
2022-10-21T06:17:00.310Z,29.75
2022-10-21T06:19:29.665Z,31.00
2022-10-21T06:21:59.955Z,29.00
2022-10-21T06:24:31.282Z,28.50
2022-10-21T06:27:01.247Z,27.50
2022-10-21T06:29:30.671Z,29.00
2022-10-21T06:32:00.154Z,29.25
2022-10-21T06:34:29.546Z,27.50
2022-10-21T06:36:59.057Z,27.00
2022-10-21T06:39:28.570Z,27.50
2022-10-21T06:41:58.021Z,27.75
2022-10-21T06:44:42.038Z,27.75
2022-10-21T06:47:11.903Z,26.50
2022-10-21T06:49:41.430Z,28.00
2022-10-21T06:52:10.920Z,27.25
2022-10-21T06:54:40.353Z,27.25
2022-10-21T06:57:09.743Z,27.50
2022-10-21T06:59:39.145Z,27.50
2022-10-21T07:02:08.770Z,27.75
2022-10-21T07:04:38.604Z,27.50
2022-10-21T07:07:08.057Z,27.00
2022-10-21T07:09:37.531Z,26.75
2022-10-21T07:12:07.392Z,28.50
2022-10-21T07:14:36.875Z,31.50
2022-10-21T07:17:06.582Z,32.50
2022-10-21T07:19:36.062Z,31.00
2022-10-21T07:22:05.468Z,29.75
2022-10-21T07:24:35.029Z,31.75
2022-10-21T07:27:05.344Z,30.00
2022-10-21T07:29:35.035Z,30.50
2022-10-21T07:32:04.521Z,30.50
2022-10-21T07:34:33.936Z,33.00
2022-10-21T07:37:03.419Z,33.50
2022-10-21T07:39:32.858Z,30.25
2022-10-21T07:42:02.292Z,31.75
2022-10-21T07:44:31.803Z,31.00
2022-10-21T07:47:01.278Z,32.75
2022-10-21T07:49:30.791Z,33.75
2022-10-21T07:52:00.234Z,31.75
2022-10-21T07:54:29.818Z,31.50
2022-10-21T07:56:59.901Z,30.75
2022-10-21T07:59:29.478Z,31.75
2022-10-21T08:01:59.002Z,30.50
2022-10-21T08:04:31.189Z,29.00
2022-10-21T08:07:01.163Z,30.00
2022-10-21T08:09:30.618Z,30.50
2022-10-21T08:12:00.332Z,30.00
2022-10-21T08:14:29.786Z,28.00
2022-10-21T08:16:59.310Z,29.50
2022-10-21T08:19:30.941Z,28.00
2022-10-21T08:22:00.817Z,31.00
2022-10-21T08:24:30.736Z,29.25
2022-10-21T08:27:01.268Z,28.00
2022-10-21T08:29:30.810Z,28.25
2022-10-21T08:32:00.410Z,27.25
2022-10-21T08:34:29.847Z,27.75
2022-10-21T08:36:59.414Z,28.25
2022-10-21T08:39:29.005Z,27.75
2022-10-21T08:42:14.286Z,28.00
2022-10-21T08:44:55.137Z,28.00
2022-10-21T08:47:27.523Z,27.50
2022-10-21T08:49:57.041Z,27.75
2022-10-21T08:52:33.717Z,27.50
2022-10-21T08:55:07.989Z,27.75
2022-10-21T08:57:37.722Z,27.25
2022-10-21T09:00:16.803Z,26.25
2022-10-21T09:03:06.310Z,26.75
2022-10-21T09:05:40.064Z,27.50
2022-10-21T09:08:15.656Z,27.50
2022-10-21T09:10:45.026Z,28.00
2022-10-21T09:13:27.949Z,27.50
2022-10-21T09:16:12.663Z,25.75
2022-10-21T09:18:50.320Z,27.50
2022-10-21T09:21:25.759Z,25.75
2022-10-21T09:23:55.403Z,27.50
2022-10-21T09:26:40.089Z,27.75
2022-10-21T09:29:18.604Z,28.25
2022-10-21T09:31:54.337Z,28.00
2022-10-21T09:34:35.636Z,28.50
2022-10-21T09:37:08.875Z,28.25
2022-10-21T09:39:43.433Z,28.50
2022-10-21T09:42:35.409Z,29.50
2022-10-21T09:45:05.617Z,32.25
2022-10-21T09:47:35.203Z,31.50
2022-10-21T09:50:08.223Z,32.75
2022-10-21T09:52:39.542Z,31.50
2022-10-21T09:55:13.880Z,31.75
2022-10-21T09:57:47.261Z,30.50
2022-10-21T10:00:17.124Z,31.75
2022-10-21T10:02:48.063Z,32.25
2022-10-21T10:05:36.959Z,33.00
2022-10-21T10:08:24.809Z,32.25
2022-10-21T10:11:02.913Z,31.50
2022-10-21T10:13:33.441Z,32.50
2022-10-21T10:16:20.891Z,30.75
2022-10-21T10:18:51.280Z,32.25
2022-10-21T10:21:24.488Z,32.50
2022-10-21T10:23:55.575Z,32.75
2022-10-21T10:26:30.426Z,32.50
2022-10-21T10:29:26.108Z,32.50
2022-10-21T10:31:57.401Z,32.50
2022-10-21T10:34:34.998Z,32.25
2022-10-21T10:37:07.853Z,32.00
2022-10-21T10:39:41.062Z,32.00
2022-10-21T10:42:10.833Z,33.00
2022-10-21T10:44:42.570Z,31.00
2022-10-21T10:47:20.738Z,32.50
2022-10-21T10:49:52.741Z,33.00
2022-10-21T10:52:25.533Z,34.00
2022-10-21T10:55:27.393Z,33.50
2022-10-21T10:58:11.485Z,31.75
2022-10-21T11:00:45.681Z,33.25
2022-10-21T11:03:20.159Z,33.50
2022-10-21T11:05:55.833Z,33.50
2022-10-21T11:08:34.675Z,31.00
2022-10-21T11:11:06.122Z,33.50
2022-10-21T11:13:40.075Z,33.75
2022-10-21T11:16:21.262Z,33.50
2022-10-21T11:18:54.172Z,34.50
2022-10-21T11:21:23.990Z,32.75
2022-10-21T11:24:07.947Z,33.50
2022-10-21T11:26:48.239Z,33.50
2022-10-21T11:29:29.785Z,33.50
2022-10-21T11:32:11.694Z,33.00
2022-10-21T11:34:55.387Z,34.25
2022-10-21T11:37:34.461Z,32.50
2022-10-21T11:40:12.642Z,33.50
2022-10-21T11:42:47.622Z,32.75
2022-10-21T11:45:30.744Z,37.50
2022-10-21T11:48:06.146Z,34.25
2022-10-21T11:50:52.143Z,34.50
2022-10-21T11:53:29.173Z,34.00
2022-10-21T11:56:16.509Z,35.50
2022-10-21T11:58:49.003Z,34.50
2022-10-21T12:01:25.209Z,33.75
2022-10-21T12:04:10.633Z,34.75
2022-10-21T12:06:50.736Z,35.50
2022-10-21T12:09:27.866Z,36.50
2022-10-21T12:12:05.860Z,36.00
2022-10-21T12:14:38.319Z,36.00
2022-10-21T12:17:10.586Z,34.75
2022-10-21T12:19:40.443Z,37.50
2022-10-21T12:22:12.637Z,34.50
2022-10-21T12:24:46.410Z,34.50
2022-10-21T12:27:19.086Z,34.50
2022-10-21T12:29:49.454Z,34.50
2022-10-21T12:32:33.136Z,35.75
2022-10-21T12:35:03.592Z,36.00
2022-10-21T12:37:42.300Z,37.25
2022-10-21T12:40:18.987Z,34.75
2022-10-21T12:42:50.164Z,35.00
2022-10-21T12:45:30.528Z,34.50
2022-10-21T12:48:01.163Z,37.75
2022-10-21T12:50:31.866Z,34.75
2022-10-21T12:53:24.927Z,36.50
2022-10-21T12:55:56.531Z,35.00
2022-10-21T12:58:32.963Z,34.50
2022-10-21T13:01:04.288Z,36.50
2022-10-21T13:03:46.819Z,35.75
2022-10-21T13:06:16.693Z,36.00
2022-10-21T13:08:46.177Z,38.00
2022-10-21T13:11:22.185Z,36.25
2022-10-21T13:14:11.519Z,34.75
2022-10-21T13:16:42.827Z,37.25
2022-10-21T13:19:18.658Z,34.50
2022-10-21T13:21:50.336Z,36.75
2022-10-21T13:24:33.626Z,36.25
2022-10-21T13:27:05.801Z,37.75
2022-10-21T13:29:47.593Z,40.25
2022-10-21T13:32:20.966Z,38.25
2022-10-21T13:34:51.037Z,38.00
2022-10-21T13:37:30.886Z,36.75
2022-10-21T13:40:03.142Z,34.75
2022-10-21T13:42:37.760Z,38.50
2022-10-21T13:45:23.132Z,37.75
2022-10-21T13:48:02.866Z,37.75
2022-10-21T13:50:35.128Z,39.25
2022-10-21T13:53:07.526Z,38.00
2022-10-21T13:55:37.373Z,38.00
2022-10-21T13:58:07.098Z,39.25
2022-10-21T14:00:37.177Z,36.75
2022-10-21T14:03:07.612Z,37.75
2022-10-21T14:05:39.342Z,38.75
2022-10-21T14:08:19.415Z,38.75
2022-10-21T14:10:49.475Z,40.00
2022-10-21T14:13:22.519Z,39.00
2022-10-21T14:15:53.372Z,36.00
2022-10-21T14:18:30.243Z,35.75
2022-10-21T14:21:03.002Z,39.00
2022-10-21T14:23:32.795Z,40.00
2022-10-21T14:26:10.174Z,40.00
2022-10-21T14:28:41.111Z,41.75
2022-10-21T14:31:15.179Z,38.75
2022-10-21T14:33:47.817Z,39.75
2022-10-21T14:36:21.259Z,41.50
2022-10-21T14:38:54.377Z,40.25
2022-10-21T14:41:28.591Z,41.00
2022-10-21T14:44:00.759Z,41.00
2022-10-21T14:46:30.758Z,39.50
2022-10-21T14:49:02.837Z,40.50
2022-10-21T14:51:39.343Z,40.50
2022-10-21T14:54:19.910Z,41.00
2022-10-21T14:56:50.480Z,41.25
2022-10-21T14:59:43.060Z,38.50
2022-10-21T15:02:22.791Z,40.00
2022-10-21T15:04:56.033Z,41.50
2022-10-21T15:07:30.371Z,39.50
2022-10-21T15:10:07.031Z,39.25
2022-10-21T15:12:44.127Z,38.50
2022-10-21T15:15:32.417Z,40.75
2022-10-21T15:18:05.240Z,40.75
2022-10-21T15:20:37.646Z,40.25
2022-10-21T15:23:07.525Z,38.50
2022-10-21T15:25:40.031Z,39.75
2022-10-21T15:28:12.725Z,40.50
2022-10-21T15:30:43.758Z,37.00
2022-10-21T15:33:14.874Z,36.75
2022-10-21T15:35:44.988Z,37.00
2022-10-21T15:38:14.601Z,33.75
2022-10-21T15:40:44.450Z,35.75
2022-10-21T15:43:14.202Z,34.75
2022-10-21T15:45:43.948Z,34.75
2022-10-21T15:48:15.324Z,34.00
2022-10-21T15:50:46.076Z,35.00
2022-10-21T15:53:16.288Z,33.00
2022-10-21T15:55:46.030Z,33.25
2022-10-21T15:58:15.592Z,33.75
2022-10-21T16:00:45.337Z,33.00
2022-10-21T16:03:15.123Z,33.75
2022-10-21T16:05:44.898Z,32.50
2022-10-21T16:08:14.831Z,32.00
2022-10-21T16:10:49.231Z,32.25
2022-10-21T16:13:19.292Z,32.25
2022-10-21T16:15:48.974Z,30.50
2022-10-21T16:18:18.550Z,32.00
2022-10-21T16:20:48.152Z,31.50
2022-10-21T16:23:17.798Z,31.00
2022-10-21T16:25:47.401Z,32.50
2022-10-21T16:28:17.086Z,32.25
2022-10-21T16:30:46.654Z,31.25
2022-10-21T16:33:16.251Z,31.25
2022-10-21T16:35:49.955Z,30.75
2022-10-21T16:40:50.655Z,31.00
2022-10-21T16:43:20.082Z,30.75
2022-10-21T16:45:50.611Z,29.75
2022-10-21T16:48:20.152Z,30.00
2022-10-21T16:50:49.705Z,31.00
2022-10-21T16:53:19.539Z,29.00
2022-10-21T16:55:49.045Z,29.75
2022-10-21T16:58:18.559Z,29.25
2022-10-21T17:00:50.177Z,29.25
2022-10-21T17:03:19.853Z,28.75
2022-10-21T17:05:51.851Z,30.50
2022-10-21T17:08:21.315Z,30.00
2022-10-21T17:10:50.925Z,30.00
2022-10-21T17:13:20.396Z,27.75
2022-10-21T17:15:49.813Z,28.00
2022-10-21T17:18:19.285Z,28.75
2022-10-21T17:20:50.866Z,28.50
2022-10-21T17:23:20.535Z,28.50
2022-10-21T17:25:49.893Z,27.00
2022-10-21T17:28:19.305Z,28.75
2022-10-21T17:30:48.871Z,32.75
2022-10-21T17:33:18.671Z,33.00
2022-10-21T17:35:48.064Z,34.00
2022-10-21T17:38:17.500Z,34.50
2022-10-21T17:40:46.982Z,34.75
2022-10-21T17:43:16.448Z,36.50
2022-10-21T17:45:45.889Z,37.00
2022-10-21T17:48:15.299Z,34.75
2022-10-21T17:50:44.784Z,38.25
2022-10-21T17:53:14.247Z,37.00
2022-10-21T17:55:43.690Z,40.50
2022-10-21T17:58:13.054Z,42.25
2022-10-21T18:00:44.627Z,38.25
2022-10-21T18:03:19.271Z,40.50
2022-10-21T18:05:49.044Z,42.00
2022-10-21T18:08:18.506Z,39.00
2022-10-21T18:10:58.232Z,40.75
2022-10-21T18:13:28.798Z,41.00
2022-10-21T18:16:03.371Z,39.00
2022-10-21T18:18:32.899Z,38.50
2022-10-21T18:21:12.567Z,41.00
2022-10-21T18:23:43.434Z,42.00
2022-10-21T18:26:18.447Z,42.50
2022-10-21T18:28:52.044Z,41.50
2022-10-21T18:31:25.360Z,39.50
2022-10-21T18:33:56.283Z,43.00
2022-10-21T18:36:26.031Z,42.75
2022-10-21T18:38:55.638Z,41.00
2022-10-21T18:41:25.003Z,41.00
2022-10-21T18:43:55.845Z,40.50
2022-10-21T18:46:25.574Z,40.00
2022-10-21T18:48:54.963Z,40.50
2022-10-21T18:51:25.275Z,37.50
2022-10-21T18:53:54.775Z,39.50
2022-10-21T18:56:25.720Z,39.00
2022-10-21T18:58:57.628Z,39.00
2022-10-21T19:01:27.867Z,39.00
2022-10-21T19:03:58.044Z,36.75
2022-10-21T19:06:42.728Z,38.25
2022-10-21T19:09:20.068Z,36.25
2022-10-21T19:11:49.916Z,37.50
2022-10-21T19:14:19.342Z,35.00
2022-10-21T19:16:50.187Z,33.75
2022-10-21T19:19:19.711Z,33.25
2022-10-21T19:21:49.221Z,33.00
2022-10-21T19:24:18.682Z,33.00
2022-10-21T19:26:48.734Z,33.50
2022-10-21T19:29:19.650Z,32.75
2022-10-21T19:31:49.121Z,33.00
2022-10-21T19:34:21.024Z,33.75
2022-10-21T19:36:51.293Z,32.75
2022-10-21T19:39:21.123Z,30.75
2022-10-21T19:41:50.657Z,30.75
2022-10-21T19:44:20.110Z,28.00
2022-10-21T19:46:49.596Z,30.50
2022-10-21T19:49:18.973Z,30.25
2022-10-21T19:51:48.369Z,28.25
2022-10-21T19:54:17.827Z,29.25
2022-10-21T19:56:47.256Z,28.50
2022-10-21T19:59:19.206Z,29.00
2022-10-21T20:01:48.792Z,29.00
2022-10-21T20:04:18.406Z,28.00
2022-10-21T20:06:49.181Z,28.00
2022-10-21T20:09:18.602Z,27.50
2022-10-21T20:11:47.997Z,26.00
2022-10-21T20:14:18.084Z,27.75
2022-10-21T20:16:49.989Z,26.00
2022-10-21T20:19:19.989Z,25.25
2022-10-21T20:21:50.641Z,26.75
2022-10-21T20:24:20.130Z,27.00
2022-10-21T20:26:52.631Z,22.75
2022-10-21T20:29:22.063Z,26.00
2022-10-21T20:31:51.450Z,25.50
2022-10-21T20:34:21.044Z,25.50
2022-10-21T20:36:50.550Z,23.75
2022-10-21T20:39:20.038Z,23.00
2022-10-21T20:41:50.563Z,22.50
2022-10-21T20:44:19.969Z,22.25
2022-10-21T20:46:49.456Z,24.50
2022-10-21T20:49:18.935Z,23.00
2022-10-21T20:51:48.476Z,22.00
2022-10-21T20:54:19.052Z,23.00
2022-10-21T20:56:48.506Z,22.00
2022-10-21T20:59:18.232Z,20.75
2022-10-21T21:01:48.516Z,22.00
2022-10-21T21:04:18.537Z,21.25
2022-10-21T21:06:49.107Z,22.00
2022-10-21T21:12:10.243Z,20.75
2022-10-21T21:14:39.666Z,18.75
2022-10-21T21:17:09.303Z,20.00
2022-10-21T21:19:40.679Z,20.00
2022-10-21T21:22:10.452Z,19.00
2022-10-21T21:24:40.065Z,19.00
2022-10-21T21:27:09.530Z,20.00
2022-10-21T21:29:39.145Z,17.50
2022-10-21T21:32:08.794Z,18.50
2022-10-21T21:34:38.330Z,16.25
2022-10-21T21:37:07.770Z,16.25
2022-10-21T21:39:37.152Z,18.25
2022-10-21T21:42:06.664Z,19.00
2022-10-21T21:44:36.287Z,14.75
2022-10-21T21:47:05.732Z,16.25
2022-10-21T21:49:35.194Z,16.25
2022-10-21T21:52:04.651Z,14.00
2022-10-21T21:54:34.204Z,13.50
2022-10-21T21:57:26.712Z,13.00
2022-10-21T21:59:53.323Z,15.50
2022-10-21T22:02:22.683Z,13.75
2022-10-21T22:04:52.101Z,15.00
2022-10-21T22:07:21.775Z,13.00
2022-10-21T22:09:51.255Z,13.75
2022-10-21T22:12:23.091Z,13.75
2022-10-21T22:14:52.831Z,13.00
2022-10-21T22:17:22.274Z,10.75
2022-10-21T22:19:53.807Z,11.00
2022-10-21T22:22:23.622Z,11.25
2022-10-21T22:24:53.383Z,9.75
2022-10-21T22:27:22.787Z,12.00
2022-10-21T22:29:52.273Z,11.75
2022-10-21T22:32:21.700Z,9.50
2022-10-21T22:34:51.152Z,11.50
2022-10-21T22:37:20.531Z,10.00
2022-10-21T22:39:50.049Z,8.25
2022-10-21T22:42:19.732Z,9.00
2022-10-21T22:44:49.125Z,8.25
2022-10-21T22:47:18.689Z,9.00
2022-10-21T22:49:48.178Z,10.50
2022-10-21T22:52:17.676Z,10.50
2022-10-21T22:54:49.604Z,10.00
2022-10-21T22:57:19.632Z,6.75
2022-10-21T22:59:53.127Z,8.25
2022-10-21T23:02:23.200Z,7.50
2022-10-21T23:04:52.691Z,6.50
2022-10-21T23:07:22.211Z,10.00
2022-10-21T23:09:52.838Z,8.50
2022-10-21T23:12:22.212Z,8.75
2022-10-21T23:14:51.692Z,8.25
2022-10-21T23:17:21.226Z,8.00
2022-10-21T23:19:50.702Z,7.25
2022-10-21T23:22:20.489Z,7.00
2022-10-21T23:24:50.102Z,6.00
2022-10-21T23:27:19.526Z,6.00
2022-10-21T23:29:48.933Z,7.50
2022-10-21T23:32:18.401Z,7.00
2022-10-21T23:34:47.902Z,7.00
2022-10-21T23:37:17.619Z,4.00
2022-10-21T23:39:47.271Z,4.75
2022-10-21T23:42:16.779Z,6.00
2022-10-21T23:44:46.355Z,6.00
2022-10-21T23:47:15.846Z,4.75
2022-10-21T23:49:45.297Z,5.50
2022-10-21T23:52:14.746Z,4.00
2022-10-21T23:54:44.129Z,5.00
2022-10-21T23:57:13.627Z,4.50
2022-10-21T23:59:43.071Z,5.00
